createdAt,value
2022-10-28T00:01:14.826Z,19.75
2022-10-28T00:04:17.002Z,19.69
2022-10-28T00:07:19.170Z,19.75
2022-10-28T00:10:21.258Z,19.69
2022-10-28T00:13:23.405Z,19.69
2022-10-28T00:16:28.851Z,19.69
2022-10-28T00:19:30.983Z,19.69
2022-10-28T00:22:33.025Z,19.69
2022-10-28T00:25:35.080Z,19.69
2022-10-28T00:28:41.905Z,19.69
2022-10-28T00:31:44.435Z,19.69
2022-10-28T00:34:46.638Z,19.69
2022-10-28T00:37:52.456Z,19.69
2022-10-28T00:40:54.626Z,19.69
2022-10-28T00:43:59.463Z,19.69
2022-10-28T00:47:01.646Z,19.69
2022-10-28T00:50:31.616Z,19.69
2022-10-28T00:53:34.452Z,19.69
2022-10-28T00:56:40.243Z,19.69
2022-10-28T00:59:46.942Z,19.69
2022-10-28T01:02:49.725Z,19.63
2022-10-28T01:05:52.602Z,19.69
2022-10-28T01:08:57.573Z,19.63
2022-10-28T01:12:35.231Z,19.63
2022-10-28T01:15:51.399Z,19.63
2022-10-28T01:19:17.558Z,19.63
2022-10-28T01:22:27.204Z,19.63
2022-10-28T01:25:48.538Z,19.63
2022-10-28T01:29:15.512Z,19.63
2022-10-28T01:32:24.647Z,19.63
2022-10-28T01:35:34.480Z,19.63
2022-10-28T01:39:09.745Z,19.63
2022-10-28T01:42:44.415Z,19.63
2022-10-28T01:45:46.364Z,19.63
2022-10-28T01:48:53.183Z,19.63
2022-10-28T01:51:58.928Z,19.63
2022-10-28T01:55:18.573Z,19.56
2022-10-28T01:58:24.732Z,19.56
2022-10-28T02:01:29.122Z,19.56
2022-10-28T02:04:31.368Z,19.63
2022-10-28T02:07:33.781Z,19.56
2022-10-28T02:10:41.585Z,19.56
2022-10-28T02:14:00.007Z,19.56
2022-10-28T02:17:29.691Z,19.56
2022-10-28T02:20:38.603Z,19.56
2022-10-28T02:23:52.694Z,19.56
2022-10-28T02:27:05.085Z,19.56
2022-10-28T02:30:07.560Z,19.56
2022-10-28T02:33:14.789Z,19.50
2022-10-28T02:36:18.302Z,19.50
2022-10-28T02:39:26.174Z,19.56
2022-10-28T02:42:31.878Z,19.56
2022-10-28T02:45:42.316Z,19.56
2022-10-28T02:48:46.255Z,19.56
2022-10-28T02:52:00.212Z,19.56
2022-10-28T02:55:04.802Z,19.56
2022-10-28T02:58:07.288Z,19.56
2022-10-28T03:01:09.542Z,19.50
2022-10-28T03:04:11.779Z,19.56
2022-10-28T03:07:13.818Z,19.56
2022-10-28T03:10:16.004Z,19.50
2022-10-28T03:13:18.036Z,19.50
2022-10-28T03:16:20.346Z,19.50
2022-10-28T03:19:22.386Z,19.50
2022-10-28T03:22:24.413Z,19.50
2022-10-28T03:25:26.554Z,19.50
2022-10-28T03:28:28.739Z,19.50
2022-10-28T03:31:30.877Z,19.50
2022-10-28T03:34:32.958Z,19.50
2022-10-28T03:37:35.060Z,19.50
2022-10-28T03:40:37.092Z,19.50
2022-10-28T03:43:39.175Z,19.50
2022-10-28T03:46:41.386Z,19.50
2022-10-28T03:49:43.435Z,19.50
2022-10-28T03:52:46.162Z,19.50
2022-10-28T03:55:55.596Z,19.50
2022-10-28T03:58:57.623Z,19.44
2022-10-28T04:01:59.767Z,19.50
2022-10-28T04:05:01.920Z,19.44
2022-10-28T04:08:04.121Z,19.44
2022-10-28T04:11:06.279Z,19.50
2022-10-28T04:14:08.356Z,19.44
2022-10-28T04:17:10.640Z,19.44
2022-10-28T04:20:12.758Z,19.44
2022-10-28T04:23:20.937Z,19.44
2022-10-28T04:26:23.104Z,19.44
2022-10-28T04:29:25.194Z,19.44
2022-10-28T04:32:27.285Z,19.44
2022-10-28T04:35:29.325Z,19.44
2022-10-28T04:38:31.423Z,19.44
2022-10-28T04:41:33.498Z,19.44
2022-10-28T04:44:35.625Z,19.44
2022-10-28T04:47:37.782Z,19.44
2022-10-28T04:50:39.991Z,19.44
2022-10-28T04:53:42.014Z,19.44
2022-10-28T04:56:44.153Z,19.44
2022-10-28T04:59:46.832Z,19.44
2022-10-28T05:02:49.067Z,19.44
2022-10-28T05:05:51.173Z,19.44
2022-10-28T05:08:53.290Z,19.44
2022-10-28T05:11:55.355Z,19.38
2022-10-28T05:14:57.394Z,19.44
2022-10-28T05:17:59.433Z,19.38
2022-10-28T05:21:01.534Z,19.38
2022-10-28T05:24:05.332Z,19.44
2022-10-28T05:27:07.385Z,19.44
2022-10-28T05:30:10.347Z,19.38
2022-10-28T05:33:12.648Z,19.38
2022-10-28T05:36:15.050Z,19.44
2022-10-28T05:39:17.990Z,19.38
2022-10-28T05:42:20.096Z,19.38
2022-10-28T05:45:22.165Z,19.38
2022-10-28T05:48:25.009Z,19.38
2022-10-28T05:51:27.125Z,19.38
2022-10-28T05:54:29.353Z,19.38
2022-10-28T05:57:35.075Z,19.38
2022-10-28T06:00:37.501Z,19.44
2022-10-28T06:03:42.381Z,19.44
2022-10-28T06:06:44.528Z,19.38
2022-10-28T06:09:46.668Z,19.38
2022-10-28T06:12:47.159Z,19.38
2022-10-28T06:15:53.055Z,19.38
2022-10-28T06:18:55.288Z,19.38
2022-10-28T06:21:57.432Z,19.38
2022-10-28T06:24:59.489Z,19.38
2022-10-28T06:28:01.615Z,19.38
2022-10-28T06:31:05.550Z,19.38
2022-10-28T06:34:11.345Z,19.38
2022-10-28T06:37:13.603Z,19.38
2022-10-28T06:40:15.864Z,19.38
2022-10-28T06:43:18.022Z,19.38
2022-10-28T06:46:20.091Z,19.31
2022-10-28T06:49:23.659Z,19.31
2022-10-28T06:52:25.781Z,19.31
2022-10-28T06:55:28.605Z,19.38
2022-10-28T06:58:30.671Z,19.31
2022-10-28T07:01:32.944Z,19.31
2022-10-28T07:04:35.143Z,19.31
2022-10-28T07:07:37.369Z,19.31
2022-10-28T07:10:39.457Z,19.38
2022-10-28T07:13:42.543Z,19.38
2022-10-28T07:16:46.448Z,19.38
2022-10-28T07:19:48.496Z,19.38
2022-10-28T07:23:00.058Z,19.44
2022-10-28T07:26:02.109Z,19.50
2022-10-28T07:29:04.176Z,19.50
2022-10-28T07:32:06.306Z,19.50
2022-10-28T07:35:08.677Z,19.63
2022-10-28T07:38:11.539Z,19.63
2022-10-28T07:41:13.600Z,19.63
2022-10-28T07:44:18.182Z,19.75
2022-10-28T07:47:23.588Z,19.75
2022-10-28T07:50:34.083Z,19.75
2022-10-28T07:53:37.166Z,19.75
2022-10-28T07:56:43.636Z,19.69
2022-10-28T07:59:47.931Z,19.81
2022-10-28T08:02:52.525Z,19.75
2022-10-28T08:06:19.430Z,19.69
2022-10-28T08:09:27.437Z,19.69
2022-10-28T08:12:31.535Z,19.69
2022-10-28T08:15:36.207Z,19.75
2022-10-28T08:18:39.633Z,19.69
2022-10-28T08:21:42.496Z,19.75
2022-10-28T08:24:46.834Z,19.69
2022-10-28T08:27:54.081Z,19.69
2022-10-28T08:31:10.407Z,19.69
2022-10-28T08:34:15.576Z,19.63
2022-10-28T08:37:24.664Z,19.69
2022-10-28T08:40:43.499Z,19.63
2022-10-28T08:44:25.429Z,19.56
2022-10-28T08:47:54.392Z,19.56
2022-10-28T08:51:04.052Z,19.56
2022-10-28T08:54:19.583Z,19.69
2022-10-28T08:57:59.092Z,19.63
2022-10-28T09:01:08.504Z,19.69
2022-10-28T09:04:59.879Z,19.69
2022-10-28T09:08:06.544Z,19.63
2022-10-28T09:11:34.995Z,19.63
2022-10-28T09:14:46.130Z,19.63
2022-10-28T09:18:26.006Z,19.63
2022-10-28T09:21:47.754Z,19.63
2022-10-28T09:25:16.529Z,19.63
2022-10-28T09:28:25.103Z,19.63
2022-10-28T09:32:07.380Z,19.63
2022-10-28T09:35:33.626Z,19.63
2022-10-28T09:38:40.415Z,19.63
2022-10-28T09:41:46.198Z,19.50
2022-10-28T09:44:56.621Z,19.50
2022-10-28T09:48:34.153Z,19.56
2022-10-28T09:51:55.896Z,19.63
2022-10-28T09:54:58.164Z,19.63
2022-10-28T09:58:00.765Z,19.69
2022-10-28T10:01:03.781Z,19.69
2022-10-28T10:04:24.419Z,19.69
2022-10-28T10:07:37.382Z,19.69
2022-10-28T10:10:53.034Z,19.75
2022-10-28T10:13:57.127Z,19.69
2022-10-28T10:17:11.477Z,19.69
2022-10-28T10:20:15.019Z,19.69
2022-10-28T10:23:31.733Z,19.75
2022-10-28T10:26:34.240Z,19.75
2022-10-28T10:29:37.340Z,19.75
2022-10-28T10:32:39.554Z,19.69
2022-10-28T10:35:42.103Z,19.75
2022-10-28T10:38:49.255Z,19.75
2022-10-28T10:41:51.339Z,19.88
2022-10-28T10:45:15.432Z,19.81
2022-10-28T10:48:18.736Z,19.81
2022-10-28T10:51:25.842Z,19.88
2022-10-28T10:54:31.594Z,19.88
2022-10-28T10:57:34.465Z,19.88
2022-10-28T11:00:43.930Z,19.88
2022-10-28T11:03:59.279Z,19.94
2022-10-28T11:07:01.532Z,19.94
2022-10-28T11:10:04.858Z,19.94
2022-10-28T11:13:25.576Z,19.88
2022-10-28T11:16:27.771Z,19.88
2022-10-28T11:19:37.194Z,19.94
2022-10-28T11:23:07.052Z,19.94
2022-10-28T11:26:13.961Z,20.00
2022-10-28T11:29:16.984Z,20.00
2022-10-28T11:32:26.313Z,19.94
2022-10-28T11:35:37.169Z,19.94
2022-10-28T11:38:56.875Z,20.00
2022-10-28T11:42:01.816Z,19.94
2022-10-28T11:45:16.874Z,19.94
2022-10-28T11:48:47.817Z,20.06
2022-10-28T11:51:56.086Z,20.06
2022-10-28T11:55:30.845Z,20.13
2022-10-28T11:58:41.971Z,20.19
2022-10-28T12:01:59.156Z,20.19
2022-10-28T12:05:23.603Z,20.19
2022-10-28T12:08:47.550Z,20.19
2022-10-28T12:12:04.670Z,20.19
2022-10-28T12:15:25.556Z,20.31
2022-10-28T12:18:44.267Z,20.56
2022-10-28T12:21:58.926Z,20.56
2022-10-28T12:25:08.220Z,20.50
2022-10-28T12:28:21.739Z,20.63
2022-10-28T12:31:32.273Z,20.63
2022-10-28T12:34:53.277Z,20.63
2022-10-28T12:38:01.610Z,20.63
2022-10-28T12:41:18.538Z,20.69
2022-10-28T12:44:23.435Z,20.75
2022-10-28T12:47:40.595Z,20.88
2022-10-28T12:50:55.361Z,21.19
2022-10-28T12:54:32.790Z,21.75
2022-10-28T12:57:36.662Z,22.31
2022-10-28T13:00:47.614Z,22.38
2022-10-28T13:03:52.885Z,21.88
2022-10-28T13:07:25.404Z,21.56
2022-10-28T13:10:55.364Z,21.50
2022-10-28T13:14:01.171Z,21.75
2022-10-28T13:17:30.824Z,21.75
2022-10-28T13:20:52.527Z,21.88
2022-10-28T13:24:22.363Z,22.06
2022-10-28T13:27:25.309Z,22.56
2022-10-28T13:30:28.489Z,22.50
2022-10-28T13:33:33.291Z,22.50
2022-10-28T13:36:42.738Z,22.56
2022-10-28T13:39:47.565Z,22.44
2022-10-28T13:42:51.557Z,22.44
2022-10-28T13:45:55.867Z,22.38
2022-10-28T13:49:27.610Z,22.13
2022-10-28T13:52:29.827Z,22.13
2022-10-28T13:55:44.774Z,22.75
2022-10-28T13:58:59.165Z,22.06
2022-10-28T14:02:40.003Z,22.13
2022-10-28T14:05:45.425Z,22.25
2022-10-28T14:08:48.935Z,22.38
2022-10-28T14:12:08.929Z,22.81
2022-10-28T14:15:33.702Z,22.75
2022-10-28T14:18:43.608Z,22.94
2022-10-28T14:22:03.110Z,22.75
2022-10-28T14:25:40.492Z,22.69
2022-10-28T14:28:42.478Z,22.69
2022-10-28T14:31:44.878Z,22.63
2022-10-28T14:34:47.919Z,22.50
2022-10-28T14:38:05.464Z,22.56
2022-10-28T14:41:23.585Z,22.56
2022-10-28T14:45:07.528Z,22.56
2022-10-28T14:48:40.464Z,22.56
2022-10-28T14:51:43.850Z,22.50
2022-10-28T14:54:52.178Z,22.56
2022-10-28T14:57:57.919Z,22.63
2022-10-28T15:01:18.563Z,22.50
2022-10-28T15:04:21.709Z,22.50
2022-10-28T15:07:24.278Z,22.44
2022-10-28T15:10:29.454Z,22.38
2022-10-28T15:13:31.602Z,22.13
2022-10-28T15:16:33.835Z,22.13
2022-10-28T15:19:36.077Z,22.06
2022-10-28T15:22:38.138Z,21.94
2022-10-28T15:25:40.243Z,21.88
2022-10-28T15:28:43.275Z,21.81
2022-10-28T15:32:13.506Z,21.75
2022-10-28T15:35:30.557Z,21.69
2022-10-28T15:38:39.792Z,21.69
2022-10-28T15:41:45.980Z,21.69
2022-10-28T15:44:54.135Z,21.63
2022-10-28T15:47:58.170Z,21.50
2022-10-28T15:51:32.909Z,21.50
2022-10-28T15:54:35.019Z,21.44
2022-10-28T15:57:51.789Z,21.38
2022-10-28T16:00:56.074Z,21.19
2022-10-28T16:03:58.478Z,21.31
2022-10-28T16:07:07.868Z,21.31
2022-10-28T16:10:15.128Z,21.13
2022-10-28T16:13:21.542Z,21.19
2022-10-28T16:16:30.218Z,21.13
2022-10-28T16:19:36.998Z,21.06
2022-10-28T16:22:40.232Z,21.06
2022-10-28T16:25:42.301Z,20.94
2022-10-28T16:28:45.473Z,20.94
2022-10-28T16:31:51.534Z,20.81
2022-10-28T16:34:53.600Z,20.81
2022-10-28T16:37:55.998Z,20.81
2022-10-28T16:40:59.788Z,20.88
2022-10-28T16:44:02.027Z,21.06
2022-10-28T16:47:13.641Z,21.06
2022-10-28T16:50:16.762Z,21.06
2022-10-28T16:53:19.506Z,21.06
2022-10-28T16:56:21.605Z,21.00
2022-10-28T16:59:24.044Z,21.00
2022-10-28T17:02:34.739Z,21.00
2022-10-28T17:05:36.919Z,20.94
2022-10-28T17:12:01.123Z,20.94
2022-10-28T17:15:03.503Z,20.94
2022-10-28T17:18:05.833Z,20.88
2022-10-28T17:21:07.855Z,20.88
2022-10-28T17:24:10.069Z,20.81
2022-10-28T17:27:12.913Z,20.88
2022-10-28T17:30:17.333Z,20.88
2022-10-28T17:33:19.621Z,20.88
2022-10-28T17:36:23.109Z,20.81
2022-10-28T17:39:26.574Z,20.81
2022-10-28T17:42:29.206Z,20.81
2022-10-28T17:45:31.373Z,20.81
2022-10-28T17:48:33.774Z,20.81
2022-10-28T17:51:36.573Z,20.88
2022-10-28T17:54:38.766Z,20.88
2022-10-28T17:57:40.838Z,20.81
2022-10-28T18:00:42.954Z,20.75
2022-10-28T18:03:44.957Z,20.75
2022-10-28T18:06:47.046Z,20.75
2022-10-28T18:09:49.132Z,20.75
2022-10-28T18:12:52.221Z,20.75
2022-10-28T18:15:54.797Z,20.75
2022-10-28T18:18:57.144Z,20.69
2022-10-28T18:21:59.269Z,20.69
2022-10-28T18:25:01.360Z,20.75
2022-10-28T18:28:05.238Z,20.69
2022-10-28T18:31:11.673Z,20.69
2022-10-28T18:34:13.957Z,20.69
2022-10-28T18:37:16.121Z,20.69
2022-10-28T18:40:18.294Z,20.63
2022-10-28T18:43:21.675Z,20.69
2022-10-28T18:46:25.388Z,20.63
2022-10-28T18:49:27.453Z,20.63
2022-10-28T18:52:29.549Z,20.63
2022-10-28T18:55:33.339Z,20.56
2022-10-28T18:58:35.786Z,20.56
2022-10-28T19:01:38.032Z,20.56
2022-10-28T19:04:40.244Z,20.56
2022-10-28T19:07:42.255Z,20.56
2022-10-28T19:10:44.467Z,20.56
2022-10-28T19:13:46.870Z,20.56
2022-10-28T19:16:48.974Z,20.50
2022-10-28T19:19:51.527Z,20.50
2022-10-28T19:22:54.050Z,20.50
2022-10-28T19:25:57.660Z,20.50
2022-10-28T19:28:59.727Z,20.50
2022-10-28T19:32:01.879Z,20.50
2022-10-28T19:35:04.198Z,20.50
2022-10-28T19:38:06.219Z,20.50
2022-10-28T19:41:17.879Z,20.44
2022-10-28T19:44:20.142Z,20.44
2022-10-28T19:47:22.260Z,20.44
2022-10-28T19:50:24.358Z,20.44
2022-10-28T19:53:26.431Z,20.44
2022-10-28T19:56:30.107Z,20.44
2022-10-28T19:59:32.371Z,20.44
2022-10-28T20:02:34.471Z,20.44
2022-10-28T20:05:36.835Z,20.38
2022-10-28T20:08:43.372Z,20.44
2022-10-28T20:11:45.478Z,20.38
2022-10-28T20:14:47.527Z,20.38
2022-10-28T20:17:49.544Z,20.38
2022-10-28T20:20:51.793Z,20.38
2022-10-28T20:23:55.673Z,20.38
2022-10-28T20:26:58.029Z,20.38
2022-10-28T20:30:00.809Z,20.44
2022-10-28T20:33:02.917Z,20.44
2022-10-28T20:36:06.045Z,20.38
2022-10-28T20:39:16.650Z,20.38
2022-10-28T20:42:18.659Z,20.38
2022-10-28T20:45:20.731Z,20.38
2022-10-28T20:48:22.932Z,20.31
2022-10-28T20:51:26.883Z,20.31
2022-10-28T20:54:29.043Z,20.31
2022-10-28T20:57:32.537Z,20.31
2022-10-28T21:00:34.631Z,20.31
2022-10-28T21:03:37.505Z,20.31
2022-10-28T21:06:40.337Z,20.31
2022-10-28T21:09:42.470Z,20.31
2022-10-28T21:12:44.779Z,20.31
2022-10-28T21:15:46.875Z,20.31
2022-10-28T21:18:50.073Z,20.25
2022-10-28T21:21:52.202Z,20.31
2022-10-28T21:24:54.649Z,20.25
2022-10-28T21:27:58.160Z,20.25
2022-10-28T21:31:07.473Z,20.25
2022-10-28T21:34:09.514Z,20.25
2022-10-28T21:37:11.590Z,20.25
2022-10-28T21:40:13.872Z,20.25
2022-10-28T21:43:16.425Z,20.25
2022-10-28T21:46:20.004Z,20.25
2022-10-28T21:49:22.102Z,20.25
2022-10-28T21:52:24.263Z,20.25
2022-10-28T21:55:41.693Z,20.19
2022-10-28T21:58:50.185Z,20.25
2022-10-28T22:01:52.436Z,20.19
2022-10-28T22:04:54.651Z,20.19
2022-10-28T22:07:56.805Z,20.19
2022-10-28T22:11:05.530Z,20.19
2022-10-28T22:14:07.727Z,20.19
2022-10-28T22:17:09.856Z,20.19
2022-10-28T22:20:11.987Z,20.19
2022-10-28T22:23:14.092Z,20.19
2022-10-28T22:26:19.702Z,20.19
2022-10-28T22:29:21.814Z,20.19
2022-10-28T22:32:23.922Z,20.19
2022-10-28T22:35:26.837Z,20.19
2022-10-28T22:38:29.503Z,20.19
2022-10-28T22:41:33.046Z,20.19
2022-10-28T22:44:35.070Z,20.13
2022-10-28T22:47:37.111Z,20.19
2022-10-28T22:50:39.121Z,20.19
2022-10-28T22:53:41.252Z,20.13
2022-10-28T22:56:46.053Z,20.13
2022-10-28T22:59:48.132Z,20.19
2022-10-28T23:02:50.313Z,20.13
2022-10-28T23:05:52.429Z,20.13
2022-10-28T23:08:54.699Z,20.13
2022-10-28T23:11:56.751Z,20.13
2022-10-28T23:14:58.917Z,20.13
2022-10-28T23:18:00.981Z,20.13
2022-10-28T23:21:07.075Z,20.13
2022-10-28T23:24:09.345Z,20.13
2022-10-28T23:27:11.399Z,20.06
2022-10-28T23:30:14.021Z,20.06
2022-10-28T23:33:16.039Z,20.06
2022-10-28T23:36:18.382Z,20.13
2022-10-28T23:39:21.622Z,20.06
2022-10-28T23:42:23.819Z,20.06
2022-10-28T23:45:25.933Z,20.06
2022-10-28T23:48:29.157Z,20.06
2022-10-28T23:51:31.356Z,20.06
2022-10-28T23:54:33.571Z,20.06
2022-10-28T23:57:35.630Z,20.00
